createdAt,value
2022-12-22T00:02:32.813Z,4.70
2022-12-22T00:07:58.012Z,4.70
2022-12-22T00:10:43.057Z,4.70
2022-12-22T00:13:28.020Z,4.80
2022-12-22T00:18:53.276Z,4.80
2022-12-22T00:21:35.734Z,4.80
2022-12-22T00:24:18.404Z,4.70
2022-12-22T00:27:03.666Z,4.80
2022-12-22T00:29:53.708Z,4.80
2022-12-22T00:32:36.981Z,4.80
2022-12-22T00:40:44.956Z,4.70
2022-12-22T00:43:29.951Z,4.70
2022-12-22T00:46:13.621Z,6.10
2022-12-22T00:48:57.633Z,4.80
2022-12-22T00:51:40.653Z,4.80
2022-12-22T00:54:24.631Z,4.90
2022-12-22T00:57:07.061Z,4.90
2022-12-22T00:59:52.270Z,4.90
2022-12-22T01:02:34.916Z,4.90
2022-12-22T01:08:00.340Z,4.90
2022-12-22T01:10:43.399Z,4.90
2022-12-22T01:13:26.441Z,4.90
2022-12-22T01:16:11.509Z,5.00
2022-12-22T01:18:54.071Z,5.10
2022-12-22T01:21:36.486Z,5.00
2022-12-22T01:24:25.535Z,5.00
2022-12-22T01:27:07.929Z,4.90
2022-12-22T01:29:50.344Z,5.00
2022-12-22T01:32:35.329Z,4.90
2022-12-22T01:35:17.734Z,4.90
2022-12-22T01:38:00.120Z,4.90
2022-12-22T01:40:43.407Z,5.00
2022-12-22T01:43:34.824Z,5.00
2022-12-22T01:46:39.444Z,5.00
2022-12-22T01:49:30.487Z,5.00
2022-12-22T01:52:14.155Z,5.00
2022-12-22T01:54:57.076Z,5.10
2022-12-22T01:57:39.823Z,5.00
2022-12-22T02:00:23.944Z,5.00
2022-12-22T02:03:06.554Z,5.10
2022-12-22T02:05:56.721Z,5.10
2022-12-22T02:08:42.709Z,5.10
2022-12-22T02:11:38.227Z,5.00
2022-12-22T02:14:31.871Z,5.10
2022-12-22T02:17:22.540Z,5.10
2022-12-22T02:20:30.890Z,5.10
2022-12-22T02:23:26.285Z,5.10
2022-12-22T02:26:14.358Z,5.20
2022-12-22T02:29:00.173Z,5.20
2022-12-22T02:31:50.337Z,5.20
2022-12-22T02:34:32.815Z,5.30
2022-12-22T02:37:21.278Z,5.20
2022-12-22T02:40:12.651Z,5.20
2022-12-22T02:43:05.065Z,5.20
2022-12-22T02:45:58.216Z,5.20
2022-12-22T02:48:47.840Z,5.20
2022-12-22T02:51:34.504Z,5.30
2022-12-22T02:54:18.613Z,5.20
2022-12-22T02:57:02.779Z,5.20
2022-12-22T02:59:45.171Z,5.20
2022-12-22T03:02:30.402Z,5.20
2022-12-22T03:05:12.967Z,5.20
2022-12-22T03:07:55.582Z,5.20
2022-12-22T03:10:38.028Z,5.20
2022-12-22T03:13:20.442Z,5.20
2022-12-22T03:16:02.967Z,5.20
2022-12-22T03:18:48.047Z,5.20
2022-12-22T03:21:31.177Z,5.30
2022-12-22T03:24:13.600Z,5.20
2022-12-22T03:26:43.529Z,5.30
2022-12-22T03:29:13.557Z,5.20
2022-12-22T03:34:16.629Z,5.20
2022-12-22T03:47:12.946Z,5.30
2022-12-22T03:49:45.576Z,5.30
2022-12-22T04:04:49.908Z,5.40
2022-12-22T04:20:18.773Z,5.40
2022-12-22T04:25:19.849Z,5.50
2022-12-22T04:30:20.743Z,5.50
2022-12-22T04:35:23.704Z,5.50
2022-12-22T04:50:27.778Z,5.50
2022-12-22T05:05:32.231Z,5.60
2022-12-22T05:15:35.008Z,5.70
2022-12-22T05:18:05.780Z,5.60
2022-12-22T05:20:38.964Z,5.60
2022-12-22T05:33:11.036Z,5.50
2022-12-22T05:35:43.758Z,5.60
2022-12-22T05:50:48.383Z,5.60
2022-12-22T06:00:49.526Z,5.60
2022-12-22T06:03:19.647Z,5.60
2022-12-22T06:05:55.483Z,5.70
2022-12-22T06:08:26.390Z,5.60
2022-12-22T06:10:58.164Z,5.60
2022-12-22T06:13:29.263Z,5.70
2022-12-22T06:21:02.603Z,5.90
2022-12-22T06:26:04.831Z,5.80
2022-12-22T06:28:34.967Z,5.80
2022-12-22T06:36:11.538Z,5.90
2022-12-22T06:41:11.810Z,5.80
2022-12-22T06:51:12.580Z,6.00
2022-12-22T07:06:18.403Z,6.00
2022-12-22T07:08:48.304Z,6.00
2022-12-22T07:11:18.826Z,6.00
2022-12-22T07:21:22.420Z,6.00
2022-12-22T07:36:26.337Z,6.20
2022-12-22T07:44:10.389Z,6.10
2022-12-22T07:46:42.060Z,6.10
2022-12-22T07:49:26.876Z,6.30
2022-12-22T07:51:59.841Z,6.30
2022-12-22T07:54:34.077Z,6.40
2022-12-22T08:07:10.546Z,6.50
2022-12-22T08:17:16.240Z,6.70
2022-12-22T08:22:19.172Z,6.80
2022-12-22T08:27:26.103Z,6.80
2022-12-22T08:29:58.431Z,6.80
2022-12-22T08:37:35.139Z,7.00
2022-12-22T08:40:09.612Z,7.00
2022-12-22T08:45:13.720Z,7.00
2022-12-22T08:52:47.091Z,7.00
2022-12-22T09:08:02.663Z,7.10
2022-12-22T09:23:06.630Z,7.50
2022-12-22T09:25:37.922Z,7.60
2022-12-22T09:28:10.377Z,7.70
2022-12-22T09:35:43.871Z,7.90
2022-12-22T09:38:16.477Z,8.00
2022-12-22T09:43:20.845Z,8.10
2022-12-22T09:48:21.820Z,8.10
2022-12-22T09:53:26.392Z,8.10
2022-12-22T09:58:30.294Z,8.20
2022-12-22T10:01:10.782Z,8.20
2022-12-22T10:03:48.241Z,8.30
2022-12-22T10:06:23.008Z,8.30
2022-12-22T10:08:57.531Z,8.30
2022-12-22T10:11:27.427Z,8.30
2022-12-22T10:13:57.404Z,8.30
2022-12-22T10:16:31.669Z,8.30
2022-12-22T10:19:02.861Z,8.40
2022-12-22T10:21:34.541Z,9.50
2022-12-22T10:24:18.425Z,8.50
2022-12-22T10:26:49.365Z,11.60
2022-12-22T10:29:20.628Z,8.60
2022-12-22T10:32:02.890Z,8.60
2022-12-22T10:34:33.271Z,8.70
2022-12-22T10:37:06.202Z,8.90
2022-12-22T10:39:41.163Z,9.00
2022-12-22T10:42:14.892Z,8.90
2022-12-22T10:44:49.303Z,8.90
2022-12-22T10:47:24.174Z,8.80
2022-12-22T10:52:31.940Z,11.30
2022-12-22T10:55:25.798Z,8.90
2022-12-22T10:58:17.178Z,8.60
2022-12-22T11:00:47.708Z,8.40
2022-12-22T11:03:32.751Z,8.80
2022-12-22T11:06:04.418Z,8.70
2022-12-22T11:08:35.262Z,8.70
2022-12-22T11:11:12.853Z,8.70
2022-12-22T11:13:54.459Z,8.70
2022-12-22T11:16:35.152Z,8.60
2022-12-22T11:19:20.644Z,8.70
2022-12-22T11:22:01.383Z,8.60
2022-12-22T11:24:41.812Z,8.60
2022-12-22T11:27:30.521Z,8.70
2022-12-22T11:30:11.353Z,8.60
2022-12-22T11:33:00.623Z,8.70
2022-12-22T11:35:46.867Z,8.70
2022-12-22T11:38:25.009Z,8.60
2022-12-22T11:41:03.900Z,8.60
2022-12-22T11:43:52.767Z,8.60
2022-12-22T11:46:30.573Z,8.60
2022-12-22T11:49:16.637Z,8.50
2022-12-22T11:52:00.982Z,8.40
2022-12-22T11:54:48.971Z,8.30
2022-12-22T11:57:30.421Z,8.30
2022-12-22T12:00:10.691Z,8.30
2022-12-22T12:03:12.625Z,8.30
2022-12-22T12:06:18.329Z,8.20
2022-12-22T12:09:02.357Z,8.10
2022-12-22T12:11:38.785Z,8.10
2022-12-22T12:14:20.062Z,8.10
2022-12-22T12:16:59.423Z,8.10
2022-12-22T12:19:54.410Z,8.10
2022-12-22T12:22:29.736Z,8.00
2022-12-22T12:25:04.427Z,8.10
2022-12-22T12:27:53.597Z,8.00
2022-12-22T12:30:40.679Z,8.00
2022-12-22T12:33:19.068Z,8.00
2022-12-22T12:36:02.012Z,8.00
2022-12-22T12:39:07.036Z,7.90
2022-12-22T12:41:39.502Z,7.90
2022-12-22T12:44:13.489Z,7.90
2022-12-22T12:47:07.016Z,7.90
2022-12-22T12:50:05.070Z,7.90
2022-12-22T12:53:07.059Z,7.80
2022-12-22T12:55:53.531Z,7.80
2022-12-22T12:59:01.573Z,7.80
2022-12-22T13:02:00.971Z,7.70
2022-12-22T13:05:01.411Z,7.70
2022-12-22T13:08:01.468Z,7.70
2022-12-22T13:10:34.960Z,7.70
2022-12-22T13:13:04.992Z,7.70
2022-12-22T13:15:36.451Z,7.60
2022-12-22T13:18:12.104Z,7.60
2022-12-22T13:20:42.260Z,8.70
2022-12-22T13:23:16.981Z,7.60
2022-12-22T13:25:55.921Z,7.50
2022-12-22T13:28:26.712Z,7.50
2022-12-22T13:31:02.222Z,7.50
2022-12-22T13:33:35.123Z,7.50
2022-12-22T13:36:07.673Z,7.50
2022-12-22T13:38:39.744Z,7.50
2022-12-22T13:41:26.527Z,7.50
2022-12-22T13:44:01.372Z,7.40
2022-12-22T13:46:31.504Z,7.50
2022-12-22T13:49:04.962Z,7.50
2022-12-22T13:51:38.580Z,7.50
2022-12-22T13:54:16.613Z,7.60
2022-12-22T13:56:51.307Z,7.60
2022-12-22T13:59:30.398Z,7.70
2022-12-22T14:02:02.962Z,7.70
2022-12-22T14:04:33.295Z,7.80
2022-12-22T14:07:13.597Z,7.80
2022-12-22T14:09:47.217Z,7.70
2022-12-22T14:12:22.682Z,7.80
2022-12-22T14:14:54.588Z,7.90
2022-12-22T14:17:27.024Z,7.80
2022-12-22T14:19:58.433Z,7.90
2022-12-22T14:22:31.672Z,7.90
2022-12-22T14:25:04.503Z,7.90
2022-12-22T14:27:40.939Z,7.90
2022-12-22T14:30:20.409Z,7.90
2022-12-22T14:32:55.119Z,7.90
2022-12-22T14:35:31.800Z,7.90
2022-12-22T14:38:21.663Z,7.90
2022-12-22T14:40:56.893Z,7.90
2022-12-22T14:43:34.880Z,7.90
2022-12-22T14:46:09.146Z,8.00
2022-12-22T14:48:40.783Z,8.00
2022-12-22T14:51:10.952Z,8.00
2022-12-22T14:53:47.212Z,7.90
2022-12-22T14:56:18.579Z,7.90
2022-12-22T14:58:52.638Z,7.80
2022-12-22T15:01:26.751Z,7.90
2022-12-22T15:04:02.028Z,7.90
2022-12-22T15:06:39.221Z,7.90
2022-12-22T15:10:13.310Z,7.90
2022-12-22T15:12:21.566Z,7.90
2022-12-22T15:14:54.085Z,7.90
2022-12-22T15:17:26.192Z,7.90
2022-12-22T15:20:00.576Z,8.00
2022-12-22T15:22:31.124Z,7.90
2022-12-22T15:25:01.070Z,10.00
2022-12-22T15:27:30.943Z,7.80
2022-12-22T15:30:03.600Z,7.80
2022-12-22T15:32:38.023Z,7.70
2022-12-22T15:35:18.726Z,7.70
2022-12-22T15:37:48.674Z,7.70
2022-12-22T15:40:21.612Z,7.80
2022-12-22T15:42:51.583Z,7.80
2022-12-22T15:45:25.297Z,7.80
2022-12-22T15:47:57.114Z,7.70
2022-12-22T15:50:33.570Z,7.70
2022-12-22T15:53:09.451Z,7.60
2022-12-22T15:55:43.123Z,7.60
2022-12-22T15:58:16.109Z,7.60
2022-12-22T16:00:49.191Z,7.60
2022-12-22T16:03:19.469Z,7.50
2022-12-22T16:05:49.634Z,7.50
2022-12-22T16:08:23.110Z,7.50
2022-12-22T16:10:53.476Z,7.50
2022-12-22T16:13:28.894Z,7.50
2022-12-22T16:16:02.259Z,7.50
2022-12-22T16:21:08.059Z,7.40
2022-12-22T16:23:40.000Z,7.10
2022-12-22T16:31:20.944Z,7.40
2022-12-22T16:33:51.788Z,7.40
2022-12-22T16:36:22.251Z,7.30
2022-12-22T16:41:26.492Z,8.70
2022-12-22T16:44:05.273Z,7.30
2022-12-22T16:46:40.825Z,7.30
2022-12-22T16:49:11.948Z,7.20
2022-12-22T16:51:49.290Z,7.20
2022-12-22T16:59:22.073Z,7.20
2022-12-22T17:01:57.722Z,7.20
2022-12-22T17:04:31.522Z,10.60
2022-12-22T17:07:04.971Z,7.30
2022-12-22T17:09:45.312Z,8.10
2022-12-22T17:12:20.400Z,7.30
2022-12-22T17:14:52.268Z,7.20
2022-12-22T17:17:32.943Z,7.10
2022-12-22T17:22:36.344Z,7.10
2022-12-22T17:25:08.791Z,7.10
2022-12-22T17:30:18.437Z,7.10
2022-12-22T17:32:52.975Z,7.10
2022-12-22T17:35:23.580Z,7.10
2022-12-22T17:37:54.235Z,10.00
2022-12-22T17:40:27.259Z,7.10
2022-12-22T17:45:29.839Z,7.00
2022-12-22T17:48:02.668Z,7.00
2022-12-22T17:56:07.328Z,7.00
2022-12-22T18:03:28.348Z,7.00
2022-12-22T18:18:32.595Z,7.10
2022-12-22T18:23:44.524Z,7.10
2022-12-22T18:26:26.294Z,7.00
2022-12-22T18:28:58.235Z,7.10
2022-12-22T18:31:28.895Z,7.20
2022-12-22T18:34:01.564Z,7.20
2022-12-22T18:36:34.397Z,7.20
2022-12-22T18:44:17.875Z,7.10
2022-12-22T18:46:48.952Z,7.00
2022-12-22T18:49:21.733Z,7.20
2022-12-22T18:54:29.518Z,7.20
2022-12-22T18:59:33.073Z,7.20
2022-12-22T19:02:22.257Z,7.10
2022-12-22T19:04:56.193Z,7.20
2022-12-22T19:07:28.021Z,7.20
2022-12-22T19:12:30.492Z,7.10
2022-12-22T19:15:05.765Z,7.00
2022-12-22T19:20:13.849Z,7.00
2022-12-22T19:25:17.307Z,6.90
2022-12-22T19:27:48.541Z,6.90
2022-12-22T19:30:21.560Z,6.90
2022-12-22T19:32:56.686Z,6.90
2022-12-22T19:35:29.986Z,6.80
2022-12-22T19:38:00.902Z,6.80
2022-12-22T19:40:33.275Z,6.70
2022-12-22T19:45:36.939Z,6.80
2022-12-22T19:48:16.159Z,6.80
2022-12-22T19:50:49.434Z,6.70
2022-12-22T19:55:54.093Z,6.70
2022-12-22T19:58:28.088Z,6.70
2022-12-22T20:00:58.753Z,6.70
2022-12-22T20:03:29.179Z,6.60
2022-12-22T20:06:02.924Z,6.60
2022-12-22T20:08:32.962Z,6.60
2022-12-22T20:13:35.539Z,6.50
2022-12-22T20:16:07.103Z,6.50
2022-12-22T20:18:38.685Z,6.50
2022-12-22T20:21:17.229Z,6.40
2022-12-22T20:26:22.719Z,6.50
2022-12-22T20:28:52.564Z,6.40
2022-12-22T20:31:24.692Z,6.50
2022-12-22T20:36:31.950Z,6.50
2022-12-22T20:39:04.188Z,6.50
2022-12-22T20:41:34.285Z,6.50
2022-12-22T20:49:07.155Z,6.50
2022-12-22T20:51:40.776Z,6.50
2022-12-22T20:56:42.132Z,6.50
2022-12-22T20:59:17.204Z,6.50
2022-12-22T21:06:53.671Z,6.50
2022-12-22T21:22:02.856Z,6.50
2022-12-22T21:32:09.193Z,6.40
2022-12-22T21:37:18.850Z,6.40
2022-12-22T21:52:30.679Z,6.40
2022-12-22T22:07:35.221Z,6.40
2022-12-22T22:15:08.729Z,6.40
2022-12-22T22:17:38.674Z,6.40
2022-12-22T22:20:11.129Z,6.40
2022-12-22T22:22:43.830Z,6.40
2022-12-22T22:25:15.390Z,6.30
2022-12-22T22:27:47.913Z,6.40
2022-12-22T22:30:20.754Z,6.40
2022-12-22T22:32:51.500Z,6.40
2022-12-22T22:35:21.900Z,6.30
2022-12-22T22:37:56.016Z,6.30
2022-12-22T22:40:26.428Z,6.30
2022-12-22T22:42:56.899Z,6.30
2022-12-22T22:45:26.906Z,6.30
2022-12-22T22:47:57.006Z,6.30
2022-12-22T22:50:27.051Z,6.20
2022-12-22T22:52:59.652Z,6.20
2022-12-22T22:55:29.565Z,6.20
2022-12-22T22:58:00.334Z,6.20
2022-12-22T23:00:30.285Z,6.20
2022-12-22T23:03:00.711Z,6.20
2022-12-22T23:05:30.731Z,6.20
2022-12-22T23:08:03.360Z,6.20
2022-12-22T23:10:39.301Z,6.20
2022-12-22T23:13:11.872Z,6.20
2022-12-22T23:15:41.849Z,6.20
2022-12-22T23:18:12.056Z,6.20
2022-12-22T23:20:47.159Z,6.10
2022-12-22T23:23:20.301Z,6.20
2022-12-22T23:25:53.098Z,6.10
2022-12-22T23:28:23.198Z,6.10
2022-12-22T23:30:55.182Z,6.10
2022-12-22T23:33:25.304Z,6.10
2022-12-22T23:35:55.442Z,6.10
2022-12-22T23:38:28.032Z,6.10
2022-12-22T23:41:04.523Z,6.10
2022-12-22T23:43:35.095Z,6.00
2022-12-22T23:46:09.540Z,6.00
2022-12-22T23:48:40.452Z,6.10
2022-12-22T23:51:11.853Z,6.10
2022-12-22T23:53:44.391Z,6.00
2022-12-22T23:56:14.364Z,6.10
2022-12-22T23:58:46.207Z,6.10
